sensor_id;sensor_type;location;lat;lon;timestamp;P1;durP1;ratioP1;P2;durP2;ratioP2
74371;SDS011;62885;51.374;6.170;2024-03-23T00:52:10;6.68;;;1.30;;
74371;SDS011;62885;51.374;6.170;2024-03-23T00:54:35;5.38;;;1.13;;
74371;SDS011;62885;51.374;6.170;2024-03-23T00:57:01;6.18;;;1.30;;
74371;SDS011;62885;51.374;6.170;2024-03-23T00:59:26;5.03;;;1.50;;
74371;SDS011;62885;51.374;6.170;2024-03-23T01:01:53;4.88;;;1.38;;
74371;SDS011;62885;51.374;6.170;2024-03-23T01:04:19;6.20;;;1.67;;
74371;SDS011;62885;51.374;6.170;2024-03-23T01:06:44;5.15;;;1.23;;
74371;SDS011;62885;51.374;6.170;2024-03-23T01:09:10;4.93;;;1.13;;
74371;SDS011;62885;51.374;6.170;2024-03-23T01:11:36;4.18;;;1.15;;
74371;SDS011;62885;51.374;6.170;2024-03-23T01:14:01;8.48;;;1.90;;
74371;SDS011;62885;51.374;6.170;2024-03-23T01:16:27;5.68;;;1.83;;
74371;SDS011;62885;51.374;6.170;2024-03-23T01:18:52;6.20;;;1.25;;
74371;SDS011;62885;51.374;6.170;2024-03-23T01:21:17;4.72;;;1.25;;
74371;SDS011;62885;51.374;6.170;2024-03-23T01:23:43;5.05;;;1.60;;
74371;SDS011;62885;51.374;6.170;2024-03-23T01:26:08;6.27;;;1.63;;
74371;SDS011;62885;51.374;6.170;2024-03-23T01:28:33;9.10;;;1.60;;
74371;SDS011;62885;51.374;6.170;2024-03-23T01:30:59;5.85;;;1.50;;
74371;SDS011;62885;51.374;6.170;2024-03-23T01:33:24;3.42;;;1.02;;
74371;SDS011;62885;51.374;6.170;2024-03-23T01:35:49;5.97;;;1.83;;
74371;SDS011;62885;51.374;6.170;2024-03-23T01:38:15;8.20;;;1.77;;
74371;SDS011;62885;51.374;6.170;2024-03-23T01:40:40;7.47;;;1.77;;
74371;SDS011;62885;51.374;6.170;2024-03-23T01:43:07;8.25;;;1.83;;
74371;SDS011;62885;51.374;6.170;2024-03-23T01:45:33;5.95;;;1.77;;
74371;SDS011;62885;51.374;6.170;2024-03-23T01:48:00;6.55;;;1.45;;
74371;SDS011;62885;51.374;6.170;2024-03-23T01:50:26;6.03;;;1.85;;
74371;SDS011;62885;51.374;6.170;2024-03-23T01:52:52;5.43;;;1.67;;
74371;SDS011;62885;51.374;6.170;2024-03-23T01:55:19;7.57;;;1.65;;
74371;SDS011;62885;51.374;6.170;2024-03-23T01:57:44;8.50;;;1.58;;
74371;SDS011;62885;51.374;6.170;2024-03-23T02:00:10;5.22;;;1.48;;
74371;SDS011;62885;51.374;6.170;2024-03-23T02:02:40;4.45;;;1.50;;
74371;SDS011;62885;51.374;6.170;2024-03-23T02:05:10;5.80;;;1.45;;
74371;SDS011;62885;51.374;6.170;2024-03-23T02:07:39;6.47;;;1.65;;
74371;SDS011;62885;51.374;6.170;2024-03-23T02:10:06;4.45;;;1.50;;
74371;SDS011;62885;51.374;6.170;2024-03-23T02:12:32;4.88;;;1.65;;
74371;SDS011;62885;51.374;6.170;2024-03-23T02:14:58;7.00;;;1.27;;
74371;SDS011;62885;51.374;6.170;2024-03-23T02:17:24;5.00;;;1.38;;
74371;SDS011;62885;51.374;6.170;2024-03-23T02:19:50;6.85;;;1.40;;
74371;SDS011;62885;51.374;6.170;2024-03-23T02:22:15;6.65;;;1.40;;
74371;SDS011;62885;51.374;6.170;2024-03-23T02:24:41;7.65;;;2.28;;
74371;SDS011;62885;51.374;6.170;2024-03-23T02:27:07;4.55;;;1.30;;
74371;SDS011;62885;51.374;6.170;2024-03-23T02:29:32;3.95;;;1.13;;
74371;SDS011;62885;51.374;6.170;2024-03-23T02:31:57;7.72;;;1.92;;
74371;SDS011;62885;51.374;6.170;2024-03-23T02:34:24;5.70;;;1.80;;
74371;SDS011;62885;51.374;6.170;2024-03-23T02:36:49;4.53;;;1.48;;
74371;SDS011;62885;51.374;6.170;2024-03-23T02:39:15;5.40;;;1.67;;
74371;SDS011;62885;51.374;6.170;2024-03-23T02:41:40;4.00;;;1.52;;
74371;SDS011;62885;51.374;6.170;2024-03-23T02:44:05;6.30;;;1.58;;
74371;SDS011;62885;51.374;6.170;2024-03-23T02:46:31;7.25;;;1.80;;
74371;SDS011;62885;51.374;6.170;2024-03-23T02:48:57;5.85;;;1.80;;
74371;SDS011;62885;51.374;6.170;2024-03-23T02:51:22;5.65;;;1.27;;
74371;SDS011;62885;51.374;6.170;2024-03-23T02:53:47;7.57;;;2.08;;
74371;SDS011;62885;51.374;6.170;2024-03-23T02:56:13;5.18;;;1.60;;
74371;SDS011;62885;51.374;6.170;2024-03-23T02:58:41;8.20;;;1.77;;
74371;SDS011;62885;51.374;6.170;2024-03-23T03:01:06;8.38;;;1.60;;
74371;SDS011;62885;51.374;6.170;2024-03-23T03:03:32;6.25;;;2.08;;
74371;SDS011;62885;51.374;6.170;2024-03-23T03:05:57;4.60;;;1.55;;
74371;SDS011;62885;51.374;6.170;2024-03-23T03:08:23;11.23;;;1.75;;
74371;SDS011;62885;51.374;6.170;2024-03-23T03:10:48;5.43;;;1.90;;
74371;SDS011;62885;51.374;6.170;2024-03-23T03:13:13;6.95;;;1.65;;
74371;SDS011;62885;51.374;6.170;2024-03-23T03:15:45;7.72;;;2.40;;
74371;SDS011;62885;51.374;6.170;2024-03-23T03:18:10;10.93;;;2.55;;
74371;SDS011;62885;51.374;6.170;2024-03-23T03:20:39;6.60;;;2.28;;
74371;SDS011;62885;51.374;6.170;2024-03-23T03:23:05;7.43;;;2.47;;
74371;SDS011;62885;51.374;6.170;2024-03-23T03:25:31;7.40;;;2.13;;
74371;SDS011;62885;51.374;6.170;2024-03-23T03:27:57;6.05;;;2.25;;
74371;SDS011;62885;51.374;6.170;2024-03-23T03:30:22;5.53;;;2.25;;
74371;SDS011;62885;51.374;6.170;2024-03-23T03:32:47;6.95;;;2.13;;
74371;SDS011;62885;51.374;6.170;2024-03-23T03:35:13;6.90;;;2.58;;
74371;SDS011;62885;51.374;6.170;2024-03-23T03:37:38;7.32;;;1.88;;
74371;SDS011;62885;51.374;6.170;2024-03-23T03:40:03;6.13;;;1.95;;
74371;SDS011;62885;51.374;6.170;2024-03-23T03:42:29;6.22;;;2.00;;
74371;SDS011;62885;51.374;6.170;2024-03-23T03:44:54;9.50;;;2.40;;
74371;SDS011;62885;51.374;6.170;2024-03-23T03:47:20;8.57;;;2.03;;
74371;SDS011;62885;51.374;6.170;2024-03-23T03:49:45;9.45;;;2.30;;
74371;SDS011;62885;51.374;6.170;2024-03-23T03:52:12;10.30;;;2.10;;
74371;SDS011;62885;51.374;6.170;2024-03-23T03:54:37;6.30;;;1.98;;
74371;SDS011;62885;51.374;6.170;2024-03-23T03:57:02;9.43;;;3.28;;
74371;SDS011;62885;51.374;6.170;2024-03-23T03:59:29;6.68;;;2.13;;
74371;SDS011;62885;51.374;6.170;2024-03-23T04:01:54;8.43;;;2.58;;
74371;SDS011;62885;51.374;6.170;2024-03-23T04:04:19;6.68;;;2.03;;
74371;SDS011;62885;51.374;6.170;2024-03-23T04:06:45;8.43;;;2.40;;
74371;SDS011;62885;51.374;6.170;2024-03-23T04:09:10;7.40;;;2.08;;
74371;SDS011;62885;51.374;6.170;2024-03-23T04:11:36;10.25;;;2.65;;
74371;SDS011;62885;51.374;6.170;2024-03-23T04:14:01;9.35;;;1.95;;
74371;SDS011;62885;51.374;6.170;2024-03-23T04:16:27;7.53;;;2.38;;
74371;SDS011;62885;51.374;6.170;2024-03-23T04:18:53;9.30;;;2.42;;
74371;SDS011;62885;51.374;6.170;2024-03-23T04:21:19;8.85;;;2.05;;
74371;SDS011;62885;51.374;6.170;2024-03-23T04:23:45;6.80;;;2.63;;
74371;SDS011;62885;51.374;6.170;2024-03-23T04:26:10;7.85;;;2.17;;
74371;SDS011;62885;51.374;6.170;2024-03-23T04:28:36;8.20;;;2.08;;
74371;SDS011;62885;51.374;6.170;2024-03-23T04:31:04;5.45;;;1.85;;
74371;SDS011;62885;51.374;6.170;2024-03-23T04:33:30;7.40;;;2.00;;
74371;SDS011;62885;51.374;6.170;2024-03-23T04:35:55;6.35;;;2.10;;
74371;SDS011;62885;51.374;6.170;2024-03-23T04:38:21;11.60;;;2.30;;
74371;SDS011;62885;51.374;6.170;2024-03-23T04:40:53;6.38;;;1.90;;
74371;SDS011;62885;51.374;6.170;2024-03-23T04:43:25;6.28;;;2.10;;
74371;SDS011;62885;51.374;6.170;2024-03-23T04:45:51;6.75;;;1.85;;
74371;SDS011;62885;51.374;6.170;2024-03-23T04:48:21;8.50;;;2.00;;
74371;SDS011;62885;51.374;6.170;2024-03-23T04:50:47;5.53;;;2.00;;
74371;SDS011;62885;51.374;6.170;2024-03-23T04:53:19;6.25;;;2.28;;
74371;SDS011;62885;51.374;6.170;2024-03-23T04:55:45;4.22;;;1.95;;
74371;SDS011;62885;51.374;6.170;2024-03-23T04:58:10;6.75;;;1.80;;
74371;SDS011;62885;51.374;6.170;2024-03-23T05:00:35;8.57;;;2.00;;
74371;SDS011;62885;51.374;6.170;2024-03-23T05:03:01;9.02;;;2.33;;
74371;SDS011;62885;51.374;6.170;2024-03-23T05:05:26;10.68;;;2.60;;
74371;SDS011;62885;51.374;6.170;2024-03-23T05:07:51;9.27;;;2.35;;
74371;SDS011;62885;51.374;6.170;2024-03-23T05:10:17;5.72;;;2.53;;
74371;SDS011;62885;51.374;6.170;2024-03-23T05:12:42;9.60;;;2.53;;
74371;SDS011;62885;51.374;6.170;2024-03-23T05:15:08;9.48;;;3.00;;
74371;SDS011;62885;51.374;6.170;2024-03-23T05:17:34;9.10;;;2.97;;
74371;SDS011;62885;51.374;6.170;2024-03-23T05:20:00;8.75;;;2.75;;
74371;SDS011;62885;51.374;6.170;2024-03-23T05:22:25;9.25;;;3.33;;
74371;SDS011;62885;51.374;6.170;2024-03-23T05:24:52;9.38;;;2.72;;
74371;SDS011;62885;51.374;6.170;2024-03-23T05:27:19;12.55;;;2.72;;
74371;SDS011;62885;51.374;6.170;2024-03-23T05:29:44;8.63;;;2.92;;
74371;SDS011;62885;51.374;6.170;2024-03-23T05:32:10;8.32;;;2.90;;
74371;SDS011;62885;51.374;6.170;2024-03-23T05:34:35;10.65;;;3.10;;
74371;SDS011;62885;51.374;6.170;2024-03-23T05:37:01;13.32;;;3.72;;
74371;SDS011;62885;51.374;6.170;2024-03-23T05:39:26;11.90;;;3.95;;
74371;SDS011;62885;51.374;6.170;2024-03-23T05:41:51;8.30;;;3.00;;
74371;SDS011;62885;51.374;6.170;2024-03-23T05:44:17;13.32;;;3.63;;
74371;SDS011;62885;51.374;6.170;2024-03-23T05:46:42;8.25;;;2.85;;
74371;SDS011;62885;51.374;6.170;2024-03-23T05:49:13;8.55;;;2.85;;
74371;SDS011;62885;51.374;6.170;2024-03-23T05:51:39;8.05;;;3.08;;
74371;SDS011;62885;51.374;6.170;2024-03-23T05:54:04;12.35;;;3.33;;
74371;SDS011;62885;51.374;6.170;2024-03-23T05:56:29;10.23;;;3.30;;
74371;SDS011;62885;51.374;6.170;2024-03-23T05:58:55;11.10;;;4.82;;
74371;SDS011;62885;51.374;6.170;2024-03-23T06:01:20;11.65;;;3.80;;
74371;SDS011;62885;51.374;6.170;2024-03-23T06:03:45;9.43;;;3.00;;
74371;SDS011;62885;51.374;6.170;2024-03-23T06:06:11;9.88;;;4.38;;
74371;SDS011;62885;51.374;6.170;2024-03-23T06:08:37;13.38;;;4.43;;
74371;SDS011;62885;51.374;6.170;2024-03-23T06:11:04;14.02;;;3.80;;
74371;SDS011;62885;51.374;6.170;2024-03-23T06:13:31;12.05;;;4.38;;
74371;SDS011;62885;51.374;6.170;2024-03-23T06:15:58;12.70;;;4.53;;
74371;SDS011;62885;51.374;6.170;2024-03-23T06:18:24;9.48;;;3.88;;
74371;SDS011;62885;51.374;6.170;2024-03-23T06:20:49;9.98;;;3.90;;
74371;SDS011;62885;51.374;6.170;2024-03-23T06:23:15;11.40;;;4.10;;
74371;SDS011;62885;51.374;6.170;2024-03-23T06:25:42;10.52;;;3.70;;
74371;SDS011;62885;51.374;6.170;2024-03-23T06:28:08;12.35;;;4.35;;
74371;SDS011;62885;51.374;6.170;2024-03-23T06:30:33;11.13;;;3.75;;
74371;SDS011;62885;51.374;6.170;2024-03-23T06:32:58;11.15;;;3.70;;
74371;SDS011;62885;51.374;6.170;2024-03-23T06:35:24;7.18;;;3.10;;
74371;SDS011;62885;51.374;6.170;2024-03-23T06:37:49;12.05;;;3.78;;
74371;SDS011;62885;51.374;6.170;2024-03-23T06:40:14;11.43;;;3.78;;
74371;SDS011;62885;51.374;6.170;2024-03-23T06:42:40;10.20;;;3.70;;
74371;SDS011;62885;51.374;6.170;2024-03-23T06:45:05;10.43;;;3.08;;
74371;SDS011;62885;51.374;6.170;2024-03-23T06:47:31;9.60;;;3.72;;
74371;SDS011;62885;51.374;6.170;2024-03-23T06:49:57;12.82;;;3.72;;
74371;SDS011;62885;51.374;6.170;2024-03-23T06:52:22;14.30;;;3.30;;
74371;SDS011;62885;51.374;6.170;2024-03-23T06:54:50;10.73;;;3.67;;
74371;SDS011;62885;51.374;6.170;2024-03-23T06:57:15;10.50;;;3.28;;
74371;SDS011;62885;51.374;6.170;2024-03-23T06:59:41;11.05;;;3.22;;
74371;SDS011;62885;51.374;6.170;2024-03-23T07:02:06;11.57;;;3.70;;
74371;SDS011;62885;51.374;6.170;2024-03-23T07:04:35;16.95;;;3.65;;
74371;SDS011;62885;51.374;6.170;2024-03-23T07:07:01;10.13;;;3.30;;
74371;SDS011;62885;51.374;6.170;2024-03-23T07:09:27;8.27;;;3.38;;
74371;SDS011;62885;51.374;6.170;2024-03-23T07:11:56;10.32;;;3.53;;
74371;SDS011;62885;51.374;6.170;2024-03-23T07:14:22;6.80;;;2.83;;
74371;SDS011;62885;51.374;6.170;2024-03-23T07:16:47;7.25;;;3.50;;
74371;SDS011;62885;51.374;6.170;2024-03-23T07:19:14;10.82;;;4.03;;
74371;SDS011;62885;51.374;6.170;2024-03-23T07:21:41;14.75;;;3.28;;
74371;SDS011;62885;51.374;6.170;2024-03-23T07:24:07;8.23;;;2.67;;
74371;SDS011;62885;51.374;6.170;2024-03-23T07:26:32;9.75;;;3.47;;
74371;SDS011;62885;51.374;6.170;2024-03-23T07:28:58;10.60;;;3.40;;
74371;SDS011;62885;51.374;6.170;2024-03-23T07:31:23;11.35;;;3.05;;
74371;SDS011;62885;51.374;6.170;2024-03-23T07:33:50;8.95;;;3.17;;
74371;SDS011;62885;51.374;6.170;2024-03-23T07:36:15;12.63;;;3.65;;
74371;SDS011;62885;51.374;6.170;2024-03-23T07:38:41;15.07;;;4.45;;
74371;SDS011;62885;51.374;6.170;2024-03-23T07:41:08;11.00;;;3.20;;
74371;SDS011;62885;51.374;6.170;2024-03-23T07:43:35;11.40;;;3.42;;
74371;SDS011;62885;51.374;6.170;2024-03-23T07:46:00;8.27;;;3.40;;
74371;SDS011;62885;51.374;6.170;2024-03-23T07:48:26;6.13;;;2.60;;
74371;SDS011;62885;51.374;6.170;2024-03-23T07:51:02;8.63;;;2.63;;
74371;SDS011;62885;51.374;6.170;2024-03-23T07:55:59;5.63;;;1.10;;
74371;SDS011;62885;51.374;6.170;2024-03-23T07:58:26;6.28;;;1.55;;
74371;SDS011;62885;51.374;6.170;2024-03-23T08:00:55;3.38;;;1.40;;
74371;SDS011;62885;51.374;6.170;2024-03-23T08:03:28;4.30;;;1.38;;
74371;SDS011;62885;51.374;6.170;2024-03-23T08:05:53;5.03;;;1.30;;
74371;SDS011;62885;51.374;6.170;2024-03-23T08:08:18;7.57;;;1.75;;
74371;SDS011;62885;51.374;6.170;2024-03-23T08:10:48;4.35;;;1.65;;
74371;SDS011;62885;51.374;6.170;2024-03-23T08:13:16;9.93;;;4.43;;
74371;SDS011;62885;51.374;6.170;2024-03-23T08:15:41;6.25;;;2.38;;
74371;SDS011;62885;51.374;6.170;2024-03-23T08:18:07;9.18;;;2.63;;
74371;SDS011;62885;51.374;6.170;2024-03-23T08:20:32;8.57;;;3.00;;
74371;SDS011;62885;51.374;6.170;2024-03-23T08:22:58;9.15;;;3.10;;
74371;SDS011;62885;51.374;6.170;2024-03-23T08:25:23;6.88;;;2.65;;
74371;SDS011;62885;51.374;6.170;2024-03-23T08:27:49;6.18;;;2.55;;
74371;SDS011;62885;51.374;6.170;2024-03-23T08:30:14;7.28;;;2.92;;
74371;SDS011;62885;51.374;6.170;2024-03-23T08:32:39;13.43;;;2.65;;
74371;SDS011;62885;51.374;6.170;2024-03-23T08:35:05;13.65;;;3.28;;
74371;SDS011;62885;51.374;6.170;2024-03-23T08:37:31;8.45;;;3.10;;
74371;SDS011;62885;51.374;6.170;2024-03-23T08:39:56;9.23;;;2.80;;
74371;SDS011;62885;51.374;6.170;2024-03-23T08:42:21;12.85;;;3.03;;
74371;SDS011;62885;51.374;6.170;2024-03-23T08:44:47;7.78;;;2.13;;
74371;SDS011;62885;51.374;6.170;2024-03-23T08:47:15;12.23;;;3.35;;
74371;SDS011;62885;51.374;6.170;2024-03-23T08:49:40;9.70;;;2.80;;
74371;SDS011;62885;51.374;6.170;2024-03-23T08:52:06;6.93;;;2.55;;
74371;SDS011;62885;51.374;6.170;2024-03-23T08:54:32;6.38;;;1.92;;
74371;SDS011;62885;51.374;6.170;2024-03-23T08:56:57;5.07;;;2.25;;
74371;SDS011;62885;51.374;6.170;2024-03-23T08:59:22;6.03;;;2.03;;
74371;SDS011;62885;51.374;6.170;2024-03-23T09:01:48;11.35;;;2.85;;
74371;SDS011;62885;51.374;6.170;2024-03-23T09:04:14;8.70;;;2.65;;
74371;SDS011;62885;51.374;6.170;2024-03-23T09:06:39;8.10;;;2.10;;
74371;SDS011;62885;51.374;6.170;2024-03-23T09:09:07;8.82;;;2.15;;
74371;SDS011;62885;51.374;6.170;2024-03-23T09:11:32;4.57;;;1.60;;
74371;SDS011;62885;51.374;6.170;2024-03-23T09:13:58;12.18;;;3.67;;
74371;SDS011;62885;51.374;6.170;2024-03-23T09:16:23;4.97;;;1.88;;
74371;SDS011;62885;51.374;6.170;2024-03-23T09:18:48;10.80;;;1.90;;
74371;SDS011;62885;51.374;6.170;2024-03-23T09:21:14;6.95;;;2.00;;
74371;SDS011;62885;51.374;6.170;2024-03-23T09:23:43;5.47;;;1.42;;
74371;SDS011;62885;51.374;6.170;2024-03-23T09:26:09;4.43;;;1.45;;
74371;SDS011;62885;51.374;6.170;2024-03-23T09:28:34;8.85;;;2.38;;
74371;SDS011;62885;51.374;6.170;2024-03-23T09:31:06;9.85;;;1.85;;
74371;SDS011;62885;51.374;6.170;2024-03-23T09:33:32;5.32;;;1.60;;
74371;SDS011;62885;51.374;6.170;2024-03-23T09:36:02;3.67;;;1.27;;
74371;SDS011;62885;51.374;6.170;2024-03-23T09:38:28;4.88;;;1.45;;
74371;SDS011;62885;51.374;6.170;2024-03-23T09:40:54;5.38;;;1.30;;
74371;SDS011;62885;51.374;6.170;2024-03-23T09:43:19;6.20;;;1.10;;
74371;SDS011;62885;51.374;6.170;2024-03-23T09:45:45;5.00;;;1.17;;
74371;SDS011;62885;51.374;6.170;2024-03-23T09:48:11;11.02;;;1.92;;
74371;SDS011;62885;51.374;6.170;2024-03-23T09:50:40;5.35;;;1.70;;
74371;SDS011;62885;51.374;6.170;2024-03-23T09:53:07;5.82;;;1.80;;
74371;SDS011;62885;51.374;6.170;2024-03-23T09:55:34;6.32;;;1.90;;
74371;SDS011;62885;51.374;6.170;2024-03-23T09:58:03;3.83;;;1.38;;
74371;SDS011;62885;51.374;6.170;2024-03-23T10:00:30;3.78;;;1.50;;
74371;SDS011;62885;51.374;6.170;2024-03-23T10:02:58;3.00;;;0.85;;
74371;SDS011;62885;51.374;6.170;2024-03-23T10:05:27;2.45;;;0.50;;
74371;SDS011;62885;51.374;6.170;2024-03-23T10:07:53;1.45;;;0.40;;
74371;SDS011;62885;51.374;6.170;2024-03-23T10:10:19;1.75;;;0.30;;
74371;SDS011;62885;51.374;6.170;2024-03-23T10:12:46;3.22;;;0.52;;
74371;SDS011;62885;51.374;6.170;2024-03-23T10:15:19;4.07;;;0.43;;
74371;SDS011;62885;51.374;6.170;2024-03-23T10:17:49;2.38;;;0.63;;
74371;SDS011;62885;51.374;6.170;2024-03-23T10:20:23;5.68;;;1.38;;
74371;SDS011;62885;51.374;6.170;2024-03-23T10:22:49;3.67;;;0.93;;
74371;SDS011;62885;51.374;6.170;2024-03-23T10:25:16;3.03;;;1.02;;
74371;SDS011;62885;51.374;6.170;2024-03-23T10:30:23;3.00;;;1.17;;
74371;SDS011;62885;51.374;6.170;2024-03-23T10:32:52;4.45;;;1.02;;
74371;SDS011;62885;51.374;6.170;2024-03-23T10:35:37;2.17;;;0.95;;
74371;SDS011;62885;51.374;6.170;2024-03-23T10:38:06;6.10;;;2.42;;
74371;SDS011;62885;51.374;6.170;2024-03-23T10:40:35;3.47;;;1.42;;
74371;SDS011;62885;51.374;6.170;2024-03-23T10:43:02;3.67;;;1.65;;
74371;SDS011;62885;51.374;6.170;2024-03-23T10:45:29;7.25;;;1.95;;
74371;SDS011;62885;51.374;6.170;2024-03-23T10:47:55;4.38;;;1.98;;
74371;SDS011;62885;51.374;6.170;2024-03-23T10:50:21;6.70;;;1.83;;
74371;SDS011;62885;51.374;6.170;2024-03-23T10:52:47;7.25;;;2.28;;
74371;SDS011;62885;51.374;6.170;2024-03-23T10:55:13;5.55;;;1.98;;
74371;SDS011;62885;51.374;6.170;2024-03-23T10:57:54;3.85;;;1.65;;
74371;SDS011;62885;51.374;6.170;2024-03-23T11:00:21;6.88;;;2.35;;
74371;SDS011;62885;51.374;6.170;2024-03-23T11:02:48;6.28;;;1.77;;
74371;SDS011;62885;51.374;6.170;2024-03-23T11:07:51;8.90;;;1.90;;
74371;SDS011;62885;51.374;6.170;2024-03-23T11:10:36;10.43;;;1.83;;
74371;SDS011;62885;51.374;6.170;2024-03-23T11:15:46;5.53;;;1.35;;
74371;SDS011;62885;51.374;6.170;2024-03-23T11:18:11;5.15;;;1.20;;
74371;SDS011;62885;51.374;6.170;2024-03-23T11:20:45;1.92;;;1.08;;
74371;SDS011;62885;51.374;6.170;2024-03-23T11:23:25;6.93;;;1.60;;
74371;SDS011;62885;51.374;6.170;2024-03-23T11:25:52;5.53;;;0.90;;
74371;SDS011;62885;51.374;6.170;2024-03-23T11:28:17;3.08;;;1.15;;
74371;SDS011;62885;51.374;6.170;2024-03-23T11:30:43;3.35;;;0.90;;
74371;SDS011;62885;51.374;6.170;2024-03-23T11:33:08;11.93;;;2.97;;
74371;SDS011;62885;51.374;6.170;2024-03-23T11:35:38;3.25;;;1.30;;
74371;SDS011;62885;51.374;6.170;2024-03-23T11:40:30;3.73;;;1.30;;
74371;SDS011;62885;51.374;6.170;2024-03-23T11:42:57;5.40;;;1.20;;
74371;SDS011;62885;51.374;6.170;2024-03-23T11:45:23;4.63;;;1.20;;
74371;SDS011;62885;51.374;6.170;2024-03-23T11:48:00;4.07;;;1.40;;
74371;SDS011;62885;51.374;6.170;2024-03-23T11:50:29;4.30;;;1.75;;
74371;SDS011;62885;51.374;6.170;2024-03-23T11:55:56;3.40;;;1.20;;
74371;SDS011;62885;51.374;6.170;2024-03-23T11:58:23;4.18;;;1.42;;
74371;SDS011;62885;51.374;6.170;2024-03-23T12:03:18;3.88;;;1.20;;
74371;SDS011;62885;51.374;6.170;2024-03-23T12:05:49;4.13;;;1.30;;
74371;SDS011;62885;51.374;6.170;2024-03-23T12:13:30;4.28;;;1.75;;
74371;SDS011;62885;51.374;6.170;2024-03-23T12:15:57;3.35;;;1.30;;
74371;SDS011;62885;51.374;6.170;2024-03-23T12:18:35;3.60;;;1.40;;
74371;SDS011;62885;51.374;6.170;2024-03-23T12:21:01;6.43;;;1.30;;
74371;SDS011;62885;51.374;6.170;2024-03-23T12:23:27;1.80;;;1.13;;
74371;SDS011;62885;51.374;6.170;2024-03-23T12:25:52;4.35;;;1.75;;
74371;SDS011;62885;51.374;6.170;2024-03-23T12:28:17;4.53;;;1.63;;
74371;SDS011;62885;51.374;6.170;2024-03-23T12:30:43;7.07;;;1.40;;
74371;SDS011;62885;51.374;6.170;2024-03-23T12:33:08;5.45;;;1.38;;
74371;SDS011;62885;51.374;6.170;2024-03-23T12:35:34;5.07;;;1.50;;
74371;SDS011;62885;51.374;6.170;2024-03-23T12:37:59;3.50;;;1.38;;
74371;SDS011;62885;51.374;6.170;2024-03-23T12:40:25;3.25;;;1.02;;
74371;SDS011;62885;51.374;6.170;2024-03-23T12:42:51;1.75;;;0.60;;
74371;SDS011;62885;51.374;6.170;2024-03-23T12:45:17;0.98;;;0.40;;
74371;SDS011;62885;51.374;6.170;2024-03-23T12:47:44;3.47;;;1.13;;
74371;SDS011;62885;51.374;6.170;2024-03-23T12:50:10;2.67;;;0.60;;
74371;SDS011;62885;51.374;6.170;2024-03-23T12:52:36;5.50;;;0.80;;
74371;SDS011;62885;51.374;6.170;2024-03-23T12:55:02;1.60;;;0.60;;
74371;SDS011;62885;51.374;6.170;2024-03-23T12:57:30;0.63;;;0.20;;
74371;SDS011;62885;51.374;6.170;2024-03-23T12:59:56;2.63;;;0.40;;
74371;SDS011;62885;51.374;6.170;2024-03-23T13:02:22;0.10;;;0.10;;
74371;SDS011;62885;51.374;6.170;2024-03-23T13:04:51;2.72;;;0.40;;
74371;SDS011;62885;51.374;6.170;2024-03-23T13:07:18;0.68;;;0.20;;
74371;SDS011;62885;51.374;6.170;2024-03-23T13:09:44;0.20;;;0.15;;
74371;SDS011;62885;51.374;6.170;2024-03-23T13:12:10;5.30;;;1.00;;
74371;SDS011;62885;51.374;6.170;2024-03-23T13:14:37;0.65;;;0.20;;
74371;SDS011;62885;51.374;6.170;2024-03-23T13:17:03;1.50;;;0.47;;
74371;SDS011;62885;51.374;6.170;2024-03-23T13:19:30;2.67;;;0.47;;
74371;SDS011;62885;51.374;6.170;2024-03-23T13:21:57;2.60;;;1.05;;
74371;SDS011;62885;51.374;6.170;2024-03-23T13:24:26;3.70;;;1.00;;
74371;SDS011;62885;51.374;6.170;2024-03-23T13:26:53;3.35;;;0.80;;
74371;SDS011;62885;51.374;6.170;2024-03-23T13:29:19;4.43;;;1.20;;
74371;SDS011;62885;51.374;6.170;2024-03-23T13:31:45;2.72;;;0.95;;
74371;SDS011;62885;51.374;6.170;2024-03-23T13:34:11;1.10;;;0.52;;
74371;SDS011;62885;51.374;6.170;2024-03-23T13:36:39;4.75;;;1.48;;
74371;SDS011;62885;51.374;6.170;2024-03-23T13:39:05;3.20;;;1.02;;
74371;SDS011;62885;51.374;6.170;2024-03-23T13:41:43;2.97;;;0.90;;
74371;SDS011;62885;51.374;6.170;2024-03-23T13:44:10;1.75;;;1.05;;
74371;SDS011;62885;51.374;6.170;2024-03-23T13:46:36;2.42;;;1.10;;
74371;SDS011;62885;51.374;6.170;2024-03-23T13:49:02;4.93;;;1.08;;
74371;SDS011;62885;51.374;6.170;2024-03-23T13:51:27;1.35;;;0.40;;
74371;SDS011;62885;51.374;6.170;2024-03-23T13:53:53;3.42;;;0.60;;
74371;SDS011;62885;51.374;6.170;2024-03-23T13:56:20;2.75;;;0.82;;
74371;SDS011;62885;51.374;6.170;2024-03-23T13:58:45;1.63;;;0.35;;
74371;SDS011;62885;51.374;6.170;2024-03-23T14:01:14;1.13;;;0.47;;
74371;SDS011;62885;51.374;6.170;2024-03-23T14:03:41;2.55;;;0.80;;
74371;SDS011;62885;51.374;6.170;2024-03-23T14:06:07;1.88;;;0.90;;
74371;SDS011;62885;51.374;6.170;2024-03-23T14:08:33;1.60;;;0.60;;
74371;SDS011;62885;51.374;6.170;2024-03-23T14:11:01;3.22;;;0.80;;
74371;SDS011;62885;51.374;6.170;2024-03-23T14:13:28;4.35;;;0.98;;
74371;SDS011;62885;51.374;6.170;2024-03-23T14:15:54;1.77;;;1.02;;
74371;SDS011;62885;51.374;6.170;2024-03-23T14:18:19;3.88;;;1.00;;
74371;SDS011;62885;51.374;6.170;2024-03-23T14:20:44;2.17;;;1.05;;
74371;SDS011;62885;51.374;6.170;2024-03-23T14:23:10;3.90;;;0.98;;
74371;SDS011;62885;51.374;6.170;2024-03-23T14:25:35;4.13;;;0.77;;
74371;SDS011;62885;51.374;6.170;2024-03-23T14:28:00;2.08;;;0.52;;
74371;SDS011;62885;51.374;6.170;2024-03-23T14:30:26;3.85;;;1.20;;
74371;SDS011;62885;51.374;6.170;2024-03-23T14:32:51;2.72;;;0.82;;
74371;SDS011;62885;51.374;6.170;2024-03-23T14:35:16;1.67;;;0.57;;
74371;SDS011;62885;51.374;6.170;2024-03-23T14:37:42;3.97;;;1.08;;
74371;SDS011;62885;51.374;6.170;2024-03-23T14:40:07;1.58;;;0.73;;
74371;SDS011;62885;51.374;6.170;2024-03-23T14:42:33;1.45;;;0.68;;
74371;SDS011;62885;51.374;6.170;2024-03-23T14:44:58;2.80;;;0.98;;
74371;SDS011;62885;51.374;6.170;2024-03-23T14:47:24;1.35;;;0.70;;
74371;SDS011;62885;51.374;6.170;2024-03-23T14:49:49;0.85;;;0.57;;
74371;SDS011;62885;51.374;6.170;2024-03-23T14:52:16;2.70;;;0.88;;
74371;SDS011;62885;51.374;6.170;2024-03-23T14:54:42;3.35;;;1.27;;
74371;SDS011;62885;51.374;6.170;2024-03-23T14:57:07;3.67;;;1.40;;
74371;SDS011;62885;51.374;6.170;2024-03-23T14:59:34;4.30;;;0.90;;
74371;SDS011;62885;51.374;6.170;2024-03-23T15:02:00;3.10;;;0.95;;
74371;SDS011;62885;51.374;6.170;2024-03-23T15:04:25;3.15;;;0.80;;
74371;SDS011;62885;51.374;6.170;2024-03-23T15:06:51;2.15;;;0.95;;
74371;SDS011;62885;51.374;6.170;2024-03-23T15:09:16;2.83;;;0.90;;
74371;SDS011;62885;51.374;6.170;2024-03-23T15:11:42;7.43;;;1.35;;
74371;SDS011;62885;51.374;6.170;2024-03-23T15:14:07;2.75;;;0.90;;
74371;SDS011;62885;51.374;6.170;2024-03-23T15:16:33;2.60;;;0.90;;
74371;SDS011;62885;51.374;6.170;2024-03-23T15:18:58;1.67;;;0.55;;
74371;SDS011;62885;51.374;6.170;2024-03-23T15:21:24;2.30;;;0.85;;
74371;SDS011;62885;51.374;6.170;2024-03-23T15:23:49;4.70;;;0.77;;
74371;SDS011;62885;51.374;6.170;2024-03-23T15:26:14;3.72;;;0.85;;
74371;SDS011;62885;51.374;6.170;2024-03-23T15:28:41;3.40;;;0.60;;
74371;SDS011;62885;51.374;6.170;2024-03-23T15:31:08;2.80;;;0.68;;
74371;SDS011;62885;51.374;6.170;2024-03-23T15:33:36;3.25;;;0.50;;
74371;SDS011;62885;51.374;6.170;2024-03-23T15:36:04;1.38;;;0.65;;
74371;SDS011;62885;51.374;6.170;2024-03-23T15:38:33;6.40;;;1.90;;
74371;SDS011;62885;51.374;6.170;2024-03-23T15:40:59;2.25;;;1.10;;
74371;SDS011;62885;51.374;6.170;2024-03-23T15:43:24;3.15;;;1.40;;
74371;SDS011;62885;51.374;6.170;2024-03-23T15:45:53;2.20;;;0.70;;
74371;SDS011;62885;51.374;6.170;2024-03-23T15:48:31;0.98;;;0.50;;
74371;SDS011;62885;51.374;6.170;2024-03-23T15:53:23;1.75;;;0.65;;
74371;SDS011;62885;51.374;6.170;2024-03-23T15:56:00;1.20;;;0.80;;
74371;SDS011;62885;51.374;6.170;2024-03-23T15:58:26;1.27;;;0.50;;